createdAt,value
2018-04-10T00:01:31.288Z,11.90
2018-04-10T00:02:31.250Z,11.00
2018-04-10T00:03:31.241Z,11.50
2018-04-10T00:04:31.237Z,11.70
2018-04-10T00:05:31.240Z,11.80
2018-04-10T00:06:31.223Z,12.20
2018-04-10T00:07:31.206Z,12.00
2018-04-10T00:08:31.198Z,12.70
2018-04-10T00:09:31.228Z,12.20
2018-04-10T00:10:31.183Z,11.90
2018-04-10T00:11:31.179Z,12.10
2018-04-10T00:12:31.175Z,11.00
2018-04-10T00:13:31.171Z,10.90
2018-04-10T00:14:31.149Z,13.30
2018-04-10T00:15:31.146Z,12.50
2018-04-10T00:16:31.132Z,11.70
2018-04-10T00:17:31.124Z,11.70
2018-04-10T00:19:31.108Z,11.00
2018-04-10T00:20:31.098Z,12.00
2018-04-10T00:21:31.123Z,11.60
2018-04-10T00:22:31.082Z,12.00
2018-04-10T00:23:31.119Z,11.60
2018-04-10T00:24:31.076Z,11.80
2018-04-10T00:25:31.069Z,11.70
2018-04-10T00:26:31.103Z,11.90
2018-04-10T00:27:31.042Z,11.50
2018-04-10T00:28:31.031Z,11.10
2018-04-10T00:29:31.029Z,11.10
2018-04-10T00:30:31.032Z,11.50
2018-04-10T00:31:31.005Z,11.40
2018-04-10T00:32:30.997Z,11.10
2018-04-10T00:33:31.003Z,11.60
2018-04-10T00:34:30.980Z,12.10
2018-04-10T00:35:30.987Z,11.40
2018-04-10T00:36:30.981Z,10.40
2018-04-10T00:37:30.965Z,11.10
2018-04-10T00:38:30.980Z,10.40
2018-04-10T00:39:30.938Z,10.90
2018-04-10T00:40:30.929Z,12.10
2018-04-10T00:41:30.928Z,12.40
2018-04-10T00:42:30.924Z,12.30
2018-04-10T00:43:30.902Z,11.00
2018-04-10T00:44:30.894Z,11.10
2018-04-10T00:45:30.887Z,10.70
2018-04-10T00:46:30.880Z,10.60
2018-04-10T00:47:30.894Z,11.30
2018-04-10T00:48:30.868Z,10.20
2018-04-10T00:49:30.868Z,8.90
2018-04-10T00:50:30.870Z,10.50
2018-04-10T00:51:30.833Z,10.20
2018-04-10T00:52:30.855Z,9.80
2018-04-10T00:53:30.817Z,11.30
2018-04-10T00:55:30.799Z,10.60
2018-04-10T00:56:30.790Z,10.20
2018-04-10T00:57:30.783Z,9.30
2018-04-10T00:58:30.772Z,8.90
2018-04-10T00:59:30.786Z,8.00
2018-04-10T01:00:30.762Z,9.80
2018-04-10T01:01:30.747Z,8.50
2018-04-10T01:02:30.751Z,10.70
2018-04-10T01:03:30.728Z,10.20
2018-04-10T01:04:30.740Z,10.40
2018-04-10T01:05:30.711Z,10.80
2018-04-10T01:06:30.718Z,10.40
2018-04-10T01:07:30.695Z,10.70
2018-04-10T01:08:30.686Z,9.90
2018-04-10T01:09:30.676Z,8.90
2018-04-10T01:10:30.669Z,10.50
2018-04-10T01:11:30.663Z,9.70
2018-04-10T01:12:30.693Z,9.10
2018-04-10T01:13:30.641Z,8.60
2018-04-10T01:14:30.633Z,7.40
2018-04-10T01:15:30.660Z,8.60
2018-04-10T01:16:30.618Z,9.90
2018-04-10T01:17:30.615Z,9.40
2018-04-10T01:18:30.615Z,7.90
2018-04-10T01:19:30.589Z,9.30
2018-04-10T01:20:30.581Z,8.30
2018-04-10T01:21:30.572Z,9.10
2018-04-10T01:22:30.587Z,8.20
2018-04-10T01:23:30.557Z,8.90
2018-04-10T01:24:30.577Z,8.70
2018-04-10T01:25:30.538Z,8.90
2018-04-10T01:26:30.560Z,8.10
2018-04-10T01:27:30.521Z,8.80
2018-04-10T01:28:30.515Z,7.80
2018-04-10T01:29:30.719Z,8.10
2018-04-10T01:30:30.597Z,7.90
2018-04-10T01:31:30.484Z,8.90
2018-04-10T01:32:30.475Z,7.10
2018-04-10T01:33:30.469Z,8.60
2018-04-10T01:34:30.460Z,7.50
2018-04-10T01:35:30.459Z,8.90
2018-04-10T01:36:30.471Z,8.10
2018-04-10T01:37:30.443Z,8.30
2018-04-10T01:38:30.440Z,7.50
2018-04-10T01:39:30.415Z,8.50
2018-04-10T01:40:30.411Z,8.80
2018-04-10T01:41:30.423Z,7.80
2018-04-10T01:42:30.406Z,8.00
2018-04-10T01:43:30.382Z,7.90
2018-04-10T01:44:30.371Z,7.80
2018-04-10T01:45:30.363Z,7.20
2018-04-10T01:46:30.356Z,8.00
2018-04-10T01:47:30.345Z,8.00
2018-04-10T01:48:30.366Z,8.20
2018-04-10T01:49:30.391Z,8.50
2018-04-10T01:50:30.335Z,8.00
2018-04-10T01:51:30.309Z,7.90
2018-04-10T01:52:30.314Z,6.90
2018-04-10T01:53:30.328Z,7.90
2018-04-10T01:54:30.296Z,8.70
2018-04-10T01:55:30.307Z,7.70
2018-04-10T01:56:30.267Z,7.20
2018-04-10T01:57:30.258Z,8.60
2018-04-10T01:58:30.251Z,7.70
2018-04-10T01:59:30.240Z,8.40
2018-04-10T02:00:30.244Z,8.00
2018-04-10T02:01:30.264Z,7.30
2018-04-10T02:02:30.222Z,7.30
2018-04-10T02:03:30.206Z,8.80
2018-04-10T02:04:30.197Z,8.20
2018-04-10T02:05:30.212Z,7.30
2018-04-10T02:07:30.177Z,8.00
2018-04-10T02:08:30.163Z,8.60
2018-04-10T02:09:30.154Z,7.00
2018-04-10T02:10:30.145Z,7.60
2018-04-10T02:11:30.144Z,8.00
2018-04-10T02:12:30.136Z,8.00
2018-04-10T02:13:30.119Z,7.50
2018-04-10T02:14:30.136Z,7.90
2018-04-10T02:15:30.102Z,8.00
2018-04-10T02:16:30.126Z,8.20
2018-04-10T02:17:30.084Z,7.60
2018-04-10T02:18:30.090Z,8.30
2018-04-10T02:19:30.112Z,7.80
2018-04-10T02:20:30.060Z,7.00
2018-04-10T02:21:30.048Z,8.70
2018-04-10T02:22:30.042Z,7.10
2018-04-10T02:23:30.031Z,7.50
2018-04-10T02:24:30.044Z,7.40
2018-04-10T02:25:30.014Z,7.90
2018-04-10T02:26:30.027Z,6.90
2018-04-10T02:27:29.995Z,7.80
2018-04-10T02:28:29.998Z,7.50
2018-04-10T02:29:29.980Z,7.50
2018-04-10T02:30:29.993Z,7.20
2018-04-10T02:31:29.987Z,7.80
2018-04-10T02:32:29.952Z,6.60
2018-04-10T02:33:29.945Z,8.10
2018-04-10T02:34:29.937Z,7.30
2018-04-10T02:35:29.927Z,7.70
2018-04-10T02:36:29.927Z,7.60
2018-04-10T02:37:29.911Z,8.10
2018-04-10T02:38:29.900Z,7.30
2018-04-10T02:39:29.890Z,7.00
2018-04-10T02:40:29.893Z,7.70
2018-04-10T02:41:29.873Z,7.40
2018-04-10T02:43:29.890Z,7.20
2018-04-10T02:44:29.847Z,8.30
2018-04-10T02:45:29.877Z,7.10
2018-04-10T02:46:29.829Z,6.80
2018-04-10T02:47:29.820Z,7.80
2018-04-10T02:48:29.825Z,6.90
2018-04-10T02:49:29.852Z,6.80
2018-04-10T02:50:29.799Z,7.30
2018-04-10T02:51:29.787Z,6.60
2018-04-10T02:52:29.788Z,7.20
2018-04-10T02:53:29.769Z,6.70
2018-04-10T02:54:29.772Z,7.10
2018-04-10T02:55:29.750Z,7.50
2018-04-10T02:56:29.741Z,6.70
2018-04-10T02:57:29.749Z,7.80
2018-04-10T02:58:29.723Z,7.40
2018-04-10T02:59:29.714Z,6.90
2018-04-10T03:00:29.727Z,7.30
2018-04-10T03:01:29.697Z,7.60
2018-04-10T03:02:29.688Z,6.60
2018-04-10T03:03:29.678Z,7.70
2018-04-10T03:04:29.688Z,7.80
2018-04-10T03:05:29.897Z,7.20
2018-04-10T03:06:29.674Z,7.00
2018-04-10T03:07:29.642Z,8.20
2018-04-10T03:08:29.651Z,6.70
2018-04-10T03:09:29.627Z,8.00
2018-04-10T03:10:29.661Z,7.10
2018-04-10T03:11:29.726Z,6.80
2018-04-10T03:12:29.606Z,6.10
2018-04-10T03:13:29.591Z,6.10
2018-04-10T03:14:29.580Z,7.00
2018-04-10T03:15:29.569Z,6.70
2018-04-10T03:16:29.560Z,6.30
2018-04-10T03:17:29.578Z,6.80
2018-04-10T03:19:29.547Z,6.80
2018-04-10T03:20:29.522Z,6.30
2018-04-10T03:21:29.524Z,6.10
2018-04-10T03:22:29.538Z,6.30
2018-04-10T03:23:29.520Z,6.30
2018-04-10T03:24:29.496Z,6.20
2018-04-10T03:25:29.476Z,6.40
2018-04-10T03:26:29.468Z,6.80
2018-04-10T03:27:29.459Z,6.10
2018-04-10T03:28:29.448Z,6.10
2018-04-10T03:29:29.442Z,5.40
2018-04-10T03:30:29.441Z,6.70
2018-04-10T03:31:29.419Z,6.60
2018-04-10T03:32:29.411Z,6.80
2018-04-10T03:33:29.430Z,6.00
2018-04-10T03:34:29.413Z,6.40
2018-04-10T03:35:29.386Z,6.00
2018-04-10T03:36:29.427Z,5.90
2018-04-10T03:37:29.363Z,5.80
2018-04-10T03:38:29.354Z,6.40
2018-04-10T03:39:29.344Z,6.20
2018-04-10T03:40:29.335Z,7.30
2018-04-10T03:41:29.341Z,5.50
2018-04-10T03:42:29.323Z,5.60
2018-04-10T03:43:29.341Z,5.70
2018-04-10T03:44:29.297Z,6.90
2018-04-10T03:45:29.303Z,6.30
2018-04-10T03:46:29.278Z,6.10
2018-04-10T03:47:29.278Z,5.70
2018-04-10T03:48:29.314Z,5.90
2018-04-10T03:49:29.251Z,6.00
2018-04-10T03:50:29.240Z,5.50
2018-04-10T03:51:29.229Z,6.40
2018-04-10T03:52:29.220Z,5.90
2018-04-10T03:53:29.213Z,5.30
2018-04-10T03:54:29.217Z,4.90
2018-04-10T03:55:29.193Z,5.40
2018-04-10T03:56:29.183Z,5.60
2018-04-10T03:57:29.203Z,5.30
2018-04-10T03:58:29.164Z,4.60
2018-04-10T03:59:29.199Z,4.30
2018-04-10T04:00:29.152Z,5.40
2018-04-10T04:01:29.141Z,5.30
2018-04-10T04:02:29.175Z,5.20
2018-04-10T04:03:29.118Z,5.70
2018-04-10T04:04:29.109Z,4.60
2018-04-10T04:05:29.101Z,4.50
2018-04-10T04:06:29.100Z,5.40
2018-04-10T04:07:29.086Z,5.20
2018-04-10T04:08:29.072Z,4.80
2018-04-10T04:09:29.092Z,4.40
2018-04-10T04:10:29.054Z,4.20
2018-04-10T04:11:29.064Z,4.70
2018-04-10T04:12:29.057Z,3.80
2018-04-10T04:13:29.029Z,4.20
2018-04-10T04:14:29.052Z,4.10
2018-04-10T04:15:29.013Z,4.40
2018-04-10T04:16:28.998Z,4.30
2018-04-10T04:17:28.989Z,4.00
2018-04-10T04:18:28.987Z,3.80
2018-04-10T04:19:28.970Z,3.70
2018-04-10T04:20:28.964Z,4.00
2018-04-10T04:21:28.953Z,3.80
2018-04-10T04:22:28.943Z,3.70
2018-04-10T04:23:28.973Z,3.60
2018-04-10T04:24:28.938Z,3.60
2018-04-10T04:25:28.948Z,4.20
2018-04-10T04:27:28.915Z,4.00
2018-04-10T04:28:29.130Z,3.10
2018-04-10T04:29:28.900Z,4.00
2018-04-10T04:30:28.893Z,3.90
2018-04-10T04:31:28.861Z,4.20
2018-04-10T04:32:28.878Z,3.80
2018-04-10T04:33:28.847Z,3.10
2018-04-10T04:34:28.833Z,3.90
2018-04-10T04:35:28.841Z,4.30
2018-04-10T04:36:28.831Z,3.00
2018-04-10T04:37:28.806Z,3.20
2018-04-10T04:38:28.797Z,3.80
2018-04-10T04:39:28.787Z,2.90
2018-04-10T04:40:28.778Z,3.60
2018-04-10T04:41:28.772Z,3.20
2018-04-10T04:42:28.769Z,3.30
2018-04-10T04:43:28.770Z,3.50
2018-04-10T04:44:28.983Z,3.50
2018-04-10T04:45:28.747Z,2.90
2018-04-10T04:46:28.747Z,3.40
2018-04-10T04:48:28.758Z,3.20
2018-04-10T04:49:28.695Z,3.30
2018-04-10T04:50:28.728Z,3.20
2018-04-10T04:51:28.677Z,3.40
2018-04-10T04:52:28.668Z,3.20
2018-04-10T04:53:28.703Z,3.60
2018-04-10T04:54:28.660Z,3.50
2018-04-10T04:55:28.670Z,3.80
2018-04-10T04:56:28.631Z,3.00
2018-04-10T04:57:28.675Z,3.30
2018-04-10T04:58:28.612Z,3.10
2018-04-10T04:59:28.808Z,3.80
2018-04-10T05:00:28.603Z,2.60
2018-04-10T05:01:28.585Z,3.10
2018-04-10T05:02:28.577Z,3.10
2018-04-10T05:03:28.567Z,3.40
2018-04-10T05:04:28.556Z,2.90
2018-04-10T05:05:28.584Z,2.90
2018-04-10T05:06:28.555Z,3.00
2018-04-10T05:07:28.532Z,2.80
2018-04-10T05:08:28.555Z,2.70
2018-04-10T05:09:28.735Z,3.50
2018-04-10T05:10:28.502Z,2.80
2018-04-10T05:11:28.500Z,3.60
2018-04-10T05:12:28.493Z,2.60
2018-04-10T05:13:28.547Z,2.70
2018-04-10T05:14:28.471Z,2.90
2018-04-10T05:15:28.458Z,2.20
2018-04-10T05:16:28.447Z,2.90
2018-04-10T05:17:28.439Z,2.60
2018-04-10T05:18:28.451Z,3.20
2018-04-10T05:19:28.419Z,3.10
2018-04-10T05:20:28.425Z,3.10
2018-04-10T05:21:28.403Z,3.40
2018-04-10T05:22:28.397Z,3.30
2018-04-10T05:23:28.383Z,3.10
2018-04-10T05:24:28.447Z,3.40
2018-04-10T05:25:28.400Z,3.20
2018-04-10T05:26:28.361Z,2.70
2018-04-10T05:27:28.347Z,2.30
2018-04-10T05:28:28.340Z,3.00
2018-04-10T05:29:28.346Z,2.60
2018-04-10T05:30:28.414Z,2.70
2018-04-10T05:31:28.324Z,2.40
2018-04-10T05:32:28.306Z,2.50
2018-04-10T05:33:28.296Z,2.50
2018-04-10T05:34:28.284Z,2.60
2018-04-10T05:35:28.273Z,2.90
2018-04-10T05:36:28.363Z,2.90
2018-04-10T05:37:28.340Z,2.40
2018-04-10T05:38:28.251Z,3.00
2018-04-10T05:39:28.237Z,2.20
2018-04-10T05:40:28.229Z,2.40
2018-04-10T05:41:28.225Z,2.30
2018-04-10T05:42:28.235Z,2.70
2018-04-10T05:43:28.415Z,3.00
2018-04-10T05:44:28.200Z,2.70
2018-04-10T05:45:28.185Z,2.60
2018-04-10T05:46:28.179Z,2.40
2018-04-10T05:47:28.186Z,2.30
2018-04-10T05:48:28.168Z,2.50
2018-04-10T05:49:28.188Z,2.00
2018-04-10T05:50:28.142Z,2.60
2018-04-10T05:51:28.133Z,2.40
2018-04-10T05:52:28.126Z,2.70
2018-04-10T05:53:28.114Z,1.90
2018-04-10T05:54:28.112Z,2.70
2018-04-10T05:55:28.098Z,2.70
2018-04-10T05:56:28.105Z,2.20
2018-04-10T05:57:28.079Z,2.60
2018-04-10T05:58:28.071Z,1.90
2018-04-10T05:59:28.061Z,2.00
2018-04-10T06:00:28.068Z,2.50
2018-04-10T06:01:28.043Z,2.60
2018-04-10T06:02:28.078Z,1.50
2018-04-10T06:03:28.030Z,2.50
2018-04-10T06:04:28.018Z,1.80
2018-04-10T06:05:28.018Z,2.20
2018-04-10T06:06:28.001Z,2.10
2018-04-10T06:07:27.998Z,1.60
2018-04-10T06:08:28.185Z,1.60
2018-04-10T06:09:27.974Z,2.20
2018-04-10T06:10:27.971Z,1.50
2018-04-10T06:11:27.961Z,1.90
2018-04-10T06:12:27.948Z,1.60
2018-04-10T06:13:28.156Z,2.10
2018-04-10T06:14:28.015Z,1.90
2018-04-10T06:15:27.923Z,1.80
2018-04-10T06:16:27.914Z,1.70
2018-04-10T06:17:27.907Z,2.00
2018-04-10T06:18:27.904Z,1.60
2018-04-10T06:20:27.886Z,1.60
2018-04-10T06:21:27.899Z,1.90
2018-04-10T06:22:27.869Z,2.20
2018-04-10T06:23:27.863Z,1.50
2018-04-10T06:24:27.850Z,1.20
2018-04-10T06:25:27.947Z,1.30
2018-04-10T06:26:27.853Z,1.50
2018-04-10T06:27:27.830Z,1.10
2018-04-10T06:28:27.813Z,1.30
2018-04-10T06:29:27.805Z,1.40
2018-04-10T06:30:27.797Z,1.40
2018-04-10T06:31:27.892Z,1.50
2018-04-10T06:32:27.821Z,1.20
2018-04-10T06:33:27.774Z,1.50
2018-04-10T06:34:27.767Z,1.10
2018-04-10T06:35:27.755Z,1.30
2018-04-10T06:36:27.753Z,1.20
2018-04-10T06:37:27.796Z,1.20
2018-04-10T06:38:27.760Z,1.10
2018-04-10T06:39:27.766Z,1.50
2018-04-10T06:40:27.720Z,0.90
2018-04-10T06:41:27.707Z,0.90
2018-04-10T06:42:27.707Z,1.20
2018-04-10T06:43:27.700Z,1.00
2018-04-10T06:44:27.682Z,1.20
2018-04-10T06:45:27.747Z,0.90
2018-04-10T06:46:27.722Z,1.50
2018-04-10T06:47:27.658Z,0.90
2018-04-10T06:48:27.655Z,0.90
2018-04-10T06:49:27.658Z,1.10
2018-04-10T06:50:27.634Z,1.10
2018-04-10T06:51:27.683Z,0.70
2018-04-10T06:52:27.621Z,1.10
2018-04-10T06:53:27.642Z,1.20
2018-04-10T06:54:27.607Z,0.90
2018-04-10T06:55:27.690Z,0.80
2018-04-10T06:56:27.590Z,0.70
2018-04-10T06:57:27.581Z,0.80
2018-04-10T06:58:27.573Z,1.00
2018-04-10T06:59:27.655Z,1.00
2018-04-10T07:00:27.579Z,0.80
2018-04-10T07:01:27.559Z,1.00
2018-04-10T07:02:27.548Z,0.70
2018-04-10T07:03:27.547Z,0.80
2018-04-10T07:04:27.594Z,1.00
2018-04-10T07:05:27.520Z,1.10
2018-04-10T07:06:27.518Z,1.50
2018-04-10T07:07:27.515Z,0.80
2018-04-10T07:08:27.497Z,0.50
2018-04-10T07:09:27.490Z,0.70
2018-04-10T07:10:27.495Z,1.20
2018-04-10T07:11:27.486Z,0.60
2018-04-10T07:12:27.542Z,0.90
2018-04-10T07:13:27.479Z,0.80
2018-04-10T07:14:27.454Z,0.80
2018-04-10T07:15:27.446Z,0.90
2018-04-10T07:16:27.441Z,1.20
2018-04-10T07:17:27.430Z,0.80
2018-04-10T07:18:27.424Z,0.60
2018-04-10T07:19:27.441Z,0.70
2018-04-10T07:20:27.408Z,0.90
2018-04-10T07:21:27.401Z,0.70
2018-04-10T07:22:27.411Z,0.60
2018-04-10T07:23:27.384Z,0.90
2018-04-10T07:24:27.460Z,0.50
2018-04-10T07:25:27.396Z,0.80
2018-04-10T07:26:27.416Z,0.90
2018-04-10T07:27:27.356Z,0.60
2018-04-10T07:28:27.347Z,0.70
2018-04-10T07:29:27.344Z,0.60
2018-04-10T07:30:27.347Z,0.60
2018-04-10T07:31:27.381Z,0.70
2018-04-10T07:32:27.320Z,0.70
2018-04-10T07:33:27.309Z,1.40
2018-04-10T07:34:27.302Z,0.90
2018-04-10T07:35:27.367Z,0.40
2018-04-10T07:36:27.343Z,0.80
2018-04-10T07:37:27.294Z,0.70
2018-04-10T07:38:27.272Z,0.90
2018-04-10T07:39:27.263Z,0.70
2018-04-10T07:40:27.288Z,0.50
2018-04-10T07:41:27.258Z,0.90
2018-04-10T07:42:27.243Z,0.60
2018-04-10T07:43:27.316Z,0.70
2018-04-10T07:44:27.267Z,0.60
2018-04-10T07:45:27.231Z,1.00
2018-04-10T07:46:27.222Z,1.20
2018-04-10T07:47:27.202Z,0.80
2018-04-10T07:48:27.215Z,1.30
2018-04-10T07:49:27.196Z,0.70
2018-04-10T07:50:27.225Z,0.70
2018-04-10T07:51:27.258Z,0.70
2018-04-10T07:52:27.174Z,1.10
2018-04-10T07:53:27.153Z,0.50
2018-04-10T07:54:27.145Z,1.00
2018-04-10T07:55:27.182Z,0.80
2018-04-10T07:56:27.130Z,0.80
2018-04-10T07:57:27.120Z,0.60
2018-04-10T07:58:27.112Z,0.80
2018-04-10T07:59:27.107Z,1.00
2018-04-10T08:00:27.201Z,1.00
2018-04-10T08:01:27.097Z,1.30
2018-04-10T08:02:27.080Z,0.80
2018-04-10T08:03:27.083Z,0.90
2018-04-10T08:04:27.068Z,0.90
2018-04-10T08:05:27.125Z,0.80
2018-04-10T08:06:27.162Z,0.90
2018-04-10T08:07:27.051Z,0.80
2018-04-10T08:08:27.045Z,1.10
2018-04-10T08:09:27.127Z,0.90
2018-04-10T08:10:27.030Z,0.80
2018-04-10T08:11:27.008Z,0.80
2018-04-10T08:12:27.001Z,1.20
2018-04-10T08:13:27.001Z,0.90
2018-04-10T08:14:26.995Z,1.00
2018-04-10T08:15:26.979Z,0.90
2018-04-10T08:16:26.968Z,0.90
2018-04-10T08:17:26.962Z,0.90
2018-04-10T08:18:26.953Z,0.80
2018-04-10T08:19:26.994Z,1.00
2018-04-10T08:20:26.943Z,1.10
2018-04-10T08:21:26.928Z,1.00
2018-04-10T08:22:26.920Z,0.70
2018-04-10T08:23:26.911Z,0.90
2018-04-10T08:25:26.903Z,1.50
2018-04-10T08:26:26.887Z,1.10
2018-04-10T08:27:26.883Z,0.90
2018-04-10T08:29:26.862Z,0.90
2018-04-10T08:30:26.858Z,1.30
2018-04-10T08:31:26.861Z,1.00
2018-04-10T08:32:26.868Z,0.90
2018-04-10T08:33:26.829Z,1.40
2018-04-10T08:34:26.823Z,1.10
2018-04-10T08:35:26.812Z,1.00
2018-04-10T08:36:26.808Z,1.60
2018-04-10T08:37:26.804Z,0.80
2018-04-10T08:38:26.788Z,0.90
2018-04-10T08:39:26.785Z,1.00
2018-04-10T08:40:26.998Z,0.90
2018-04-10T08:41:26.806Z,1.20
2018-04-10T08:43:26.753Z,1.10
2018-04-10T08:44:26.750Z,0.70
2018-04-10T08:45:26.733Z,0.80
2018-04-10T08:46:26.723Z,0.90
2018-04-10T08:47:26.712Z,1.10
2018-04-10T08:48:26.705Z,1.00
2018-04-10T08:49:26.708Z,0.80
2018-04-10T08:50:26.690Z,1.10
2018-04-10T08:51:26.727Z,1.50
2018-04-10T08:52:26.672Z,1.00
2018-04-10T08:53:26.668Z,1.10
2018-04-10T08:54:26.658Z,1.00
2018-04-10T08:55:26.658Z,1.10
2018-04-10T08:56:26.729Z,0.70
2018-04-10T08:57:26.632Z,1.20
2018-04-10T08:58:26.625Z,1.00
2018-04-10T08:59:26.616Z,0.90
2018-04-10T09:01:26.609Z,1.30
2018-04-10T09:02:26.593Z,1.00
2018-04-10T09:03:26.584Z,1.00
2018-04-10T09:04:26.578Z,1.00
2018-04-10T09:05:26.569Z,0.70
2018-04-10T09:06:26.562Z,1.00
2018-04-10T09:07:26.731Z,0.80
2018-04-10T09:08:26.655Z,0.90
2018-04-10T09:09:26.538Z,1.00
2018-04-10T09:10:26.605Z,1.00
2018-04-10T09:11:26.521Z,0.70
2018-04-10T09:12:26.514Z,1.30
2018-04-10T09:13:26.519Z,1.10
2018-04-10T09:14:26.499Z,1.10
2018-04-10T09:15:26.491Z,0.80
2018-04-10T09:16:26.516Z,0.70
2018-04-10T09:17:26.479Z,0.80
2018-04-10T09:18:26.484Z,1.40
2018-04-10T09:19:26.470Z,0.70
2018-04-10T09:20:26.456Z,1.00
2018-04-10T09:21:26.467Z,1.00
2018-04-10T09:22:26.440Z,0.90
2018-04-10T09:23:26.430Z,1.10
2018-04-10T09:24:26.432Z,0.90
2018-04-10T09:25:26.632Z,1.30
2018-04-10T09:26:26.413Z,0.90
2018-04-10T09:27:26.645Z,1.40
2018-04-10T09:28:26.395Z,1.60
2018-04-10T09:29:26.401Z,2.00
2018-04-10T09:30:26.383Z,2.20
2018-04-10T09:31:26.390Z,2.30
2018-04-10T09:32:26.389Z,2.60
2018-04-10T09:33:26.359Z,3.20
2018-04-10T09:34:26.355Z,2.30
2018-04-10T09:35:26.350Z,2.80
2018-04-10T09:37:26.361Z,2.80
2018-04-10T09:38:26.331Z,2.40
2018-04-10T09:39:26.326Z,2.50
2018-04-10T09:40:26.314Z,2.80
2018-04-10T09:41:26.310Z,2.80
2018-04-10T09:42:26.376Z,2.50
2018-04-10T09:43:26.310Z,2.30
2018-04-10T09:44:26.296Z,2.50
2018-04-10T09:45:26.286Z,3.50
2018-04-10T09:46:26.320Z,2.80
2018-04-10T09:47:26.274Z,3.50
2018-04-10T09:48:26.269Z,2.50
2018-04-10T09:49:26.275Z,3.00
2018-04-10T09:50:26.355Z,2.70
2018-04-10T09:51:26.254Z,2.80
2018-04-10T09:52:26.248Z,2.80
2018-04-10T09:53:26.243Z,2.70
2018-04-10T09:54:26.341Z,3.00
2018-04-10T09:55:26.245Z,2.70
2018-04-10T09:56:26.229Z,3.40
2018-04-10T09:57:26.221Z,2.80
2018-04-10T09:58:26.216Z,3.00
2018-04-10T09:59:26.211Z,2.70
2018-04-10T10:00:26.269Z,3.30
2018-04-10T10:01:26.219Z,3.30
2018-04-10T10:02:26.234Z,3.10
2018-04-10T10:03:26.211Z,2.40
2018-04-10T10:04:26.227Z,2.40
2018-04-10T10:05:26.187Z,2.40
2018-04-10T10:06:26.184Z,2.50
2018-04-10T10:07:26.195Z,2.40
2018-04-10T10:08:26.173Z,2.40
2018-04-10T10:09:26.169Z,2.50
2018-04-10T10:10:26.167Z,2.20
2018-04-10T10:11:26.159Z,2.20
2018-04-10T10:12:26.176Z,2.30
2018-04-10T10:13:26.159Z,2.60
2018-04-10T10:15:26.142Z,2.30
2018-04-10T10:16:26.137Z,2.50
2018-04-10T10:17:26.134Z,3.20
2018-04-10T10:18:26.138Z,2.70
2018-04-10T10:19:26.133Z,2.30
2018-04-10T10:20:26.123Z,2.50
2018-04-10T10:21:26.126Z,2.00
2018-04-10T10:22:26.164Z,2.70
2018-04-10T10:23:26.117Z,2.40
2018-04-10T10:24:26.114Z,2.40
2018-04-10T10:25:26.163Z,2.00
2018-04-10T10:26:26.111Z,2.40
2018-04-10T10:27:26.102Z,2.00
2018-04-10T10:28:26.098Z,2.50
2018-04-10T10:29:26.298Z,1.80
2018-04-10T10:31:26.106Z,2.30
2018-04-10T10:32:26.082Z,2.00
2018-04-10T10:33:26.116Z,2.10
2018-04-10T10:34:26.083Z,2.40
2018-04-10T10:35:26.070Z,2.20
2018-04-10T10:36:26.066Z,2.30
2018-04-10T10:37:26.095Z,2.30
2018-04-10T10:38:26.058Z,1.90
2018-04-10T10:39:26.097Z,1.70
2018-04-10T10:40:26.053Z,1.80
2018-04-10T10:41:26.116Z,1.70
2018-04-10T10:42:26.129Z,2.00
2018-04-10T10:43:26.254Z,1.80
2018-04-10T10:44:26.045Z,1.80
2018-04-10T10:45:26.030Z,1.70
2018-04-10T10:46:26.023Z,2.00
2018-04-10T10:47:26.019Z,1.70
2018-04-10T10:48:26.039Z,2.00
2018-04-10T10:49:26.013Z,1.50
2018-04-10T10:50:26.019Z,2.00
2018-04-10T10:51:26.008Z,2.00
2018-04-10T10:52:26.010Z,2.10
2018-04-10T10:53:26.084Z,2.10
2018-04-10T10:54:26.024Z,1.90
2018-04-10T10:55:26.002Z,1.50
2018-04-10T10:56:26.032Z,1.40
2018-04-10T10:57:26.024Z,1.60
2018-04-10T10:58:26.008Z,1.60
2018-04-10T10:59:26.005Z,1.10
2018-04-10T11:00:26.025Z,1.40
2018-04-10T11:01:26.037Z,1.40
2018-04-10T11:02:26.028Z,1.30
2018-04-10T11:03:26.006Z,1.40
2018-04-10T11:04:26.081Z,1.40
2018-04-10T11:05:26.006Z,1.60
2018-04-10T11:06:26.010Z,1.70
2018-04-10T11:08:26.104Z,1.40
2018-04-10T11:09:26.006Z,1.80
2018-04-10T11:10:26.006Z,1.50
2018-04-10T11:11:26.005Z,1.50
2018-04-10T11:12:26.004Z,1.60
2018-04-10T11:13:26.011Z,1.70
2018-04-10T11:14:26.012Z,1.30
2018-04-10T11:15:26.007Z,1.70
2018-04-10T11:16:26.005Z,1.30
2018-04-10T11:17:26.112Z,1.60
2018-04-10T11:18:26.007Z,1.50
2018-04-10T11:19:26.010Z,1.90
2018-04-10T11:20:26.020Z,2.30
2018-04-10T11:21:26.013Z,1.60
2018-04-10T11:22:26.022Z,1.50
2018-04-10T11:23:26.020Z,1.50
2018-04-10T11:24:26.022Z,1.80
2018-04-10T11:26:26.043Z,2.50
2018-04-10T11:27:26.036Z,1.70
2018-04-10T11:28:26.050Z,2.00
2018-04-10T11:29:26.047Z,1.90
2018-04-10T11:30:26.063Z,1.90
2018-04-10T11:31:26.067Z,2.20
2018-04-10T11:33:26.288Z,1.80
2018-04-10T11:34:26.077Z,2.30
2018-04-10T11:35:26.086Z,2.20
2018-04-10T11:36:26.091Z,2.20
2018-04-10T11:37:26.101Z,2.20
2018-04-10T11:38:26.106Z,2.00
2018-04-10T11:39:26.119Z,2.10
2018-04-10T11:40:26.196Z,1.80
2018-04-10T11:41:26.133Z,1.70
2018-04-10T11:42:26.141Z,2.20
2018-04-10T11:43:26.138Z,1.80
2018-04-10T11:44:26.172Z,1.50
2018-04-10T11:45:26.168Z,1.90
2018-04-10T11:46:26.165Z,1.40
2018-04-10T11:47:26.424Z,1.30
2018-04-10T11:48:26.228Z,1.40
2018-04-10T11:49:26.178Z,1.60
2018-04-10T11:50:26.188Z,1.40
2018-04-10T11:51:26.206Z,1.40
2018-04-10T11:52:26.201Z,1.60
2018-04-10T11:53:26.206Z,2.10
2018-04-10T11:54:26.213Z,1.70
2018-04-10T11:55:26.219Z,1.80
2018-04-10T11:56:26.266Z,1.90
2018-04-10T11:57:26.251Z,1.60
2018-04-10T11:58:26.244Z,1.80
2018-04-10T11:59:26.247Z,1.40
2018-04-10T12:00:26.255Z,1.90
2018-04-10T12:01:26.262Z,2.40
2018-04-10T12:02:26.279Z,1.70
2018-04-10T12:03:26.355Z,2.10
2018-04-10T12:04:26.285Z,1.60
2018-04-10T12:05:26.298Z,2.00
2018-04-10T12:06:26.299Z,1.80
2018-04-10T12:07:26.306Z,2.60
2018-04-10T12:08:26.354Z,2.20
2018-04-10T12:09:26.426Z,1.80
2018-04-10T12:10:26.342Z,1.70
2018-04-10T12:11:26.335Z,1.70
2018-04-10T12:12:26.562Z,1.80
2018-04-10T12:13:26.351Z,2.10
2018-04-10T12:14:26.358Z,2.20
2018-04-10T12:16:26.372Z,2.70
2018-04-10T12:17:26.392Z,2.50
2018-04-10T12:18:26.387Z,1.80
2018-04-10T12:19:26.421Z,1.80
2018-04-10T12:20:26.453Z,1.70
2018-04-10T12:21:26.457Z,2.10
2018-04-10T12:22:26.420Z,2.10
2018-04-10T12:23:26.421Z,2.30
2018-04-10T12:24:26.430Z,1.90
2018-04-10T12:25:26.437Z,2.40
2018-04-10T12:26:26.443Z,2.10
2018-04-10T12:27:26.457Z,2.10
2018-04-10T12:28:26.457Z,1.90
2018-04-10T12:29:26.513Z,2.10
2018-04-10T12:30:26.565Z,2.10
2018-04-10T12:31:26.525Z,2.20
2018-04-10T12:32:26.482Z,2.50
2018-04-10T12:33:26.504Z,2.30
2018-04-10T12:34:26.499Z,1.70
2018-04-10T12:35:26.506Z,2.30
2018-04-10T12:36:26.506Z,2.30
2018-04-10T12:37:26.513Z,2.20
2018-04-10T12:38:26.525Z,1.90
2018-04-10T12:39:26.537Z,1.80
2018-04-10T12:40:26.628Z,1.80
2018-04-10T12:41:26.533Z,2.00
2018-04-10T12:42:26.541Z,2.10
2018-04-10T12:43:26.543Z,2.40
2018-04-10T12:44:26.549Z,2.20
2018-04-10T12:45:26.566Z,2.30
2018-04-10T12:46:26.559Z,1.90
2018-04-10T12:47:26.564Z,2.40
2018-04-10T12:48:26.574Z,1.80
2018-04-10T12:49:26.573Z,2.10
2018-04-10T12:50:26.582Z,2.00
2018-04-10T12:51:26.601Z,2.40
2018-04-10T12:52:26.585Z,2.10
2018-04-10T12:53:26.600Z,1.90
2018-04-10T12:54:26.799Z,2.20
2018-04-10T12:55:26.599Z,1.70
2018-04-10T12:56:26.614Z,1.80
2018-04-10T12:57:26.617Z,2.10
2018-04-10T12:58:26.632Z,2.00
2018-04-10T12:59:26.602Z,2.20
2018-04-10T13:00:26.610Z,1.80
2018-04-10T13:01:26.610Z,1.90
2018-04-10T13:02:26.610Z,2.30
2018-04-10T13:03:26.614Z,2.80
2018-04-10T13:04:26.613Z,2.60
2018-04-10T13:05:26.607Z,2.00
2018-04-10T13:06:26.714Z,1.70
2018-04-10T13:07:26.608Z,1.80
2018-04-10T13:08:26.608Z,2.00
2018-04-10T13:09:26.615Z,2.00
2018-04-10T13:10:26.607Z,2.80
2018-04-10T13:11:26.647Z,2.10
2018-04-10T13:12:26.631Z,2.10
2018-04-10T13:13:26.615Z,2.00
2018-04-10T13:14:26.632Z,2.40
2018-04-10T13:15:26.612Z,1.90
2018-04-10T13:16:26.626Z,2.20
2018-04-10T13:17:26.804Z,2.60
2018-04-10T13:18:26.599Z,2.20
2018-04-10T13:19:26.596Z,2.40
2018-04-10T13:20:26.599Z,2.00
2018-04-10T13:21:26.602Z,2.20
2018-04-10T13:22:26.595Z,2.20
2018-04-10T13:23:26.590Z,1.80
2018-04-10T13:24:26.589Z,2.10
2018-04-10T13:25:26.587Z,1.70
2018-04-10T13:26:26.586Z,1.80
2018-04-10T13:27:26.588Z,2.00
2018-04-10T13:28:26.577Z,2.00
2018-04-10T13:29:26.654Z,2.00
2018-04-10T13:30:26.602Z,2.00
2018-04-10T13:31:26.570Z,1.90
2018-04-10T13:32:26.586Z,2.60
2018-04-10T13:33:26.571Z,1.90
2018-04-10T13:34:26.562Z,1.80
2018-04-10T13:35:26.766Z,1.90
2018-04-10T13:36:26.556Z,2.30